Time,TemperatureF,DewpointF,PressureIn,WindDirection,WindDirectionDegrees,WindSpeedMPH,WindSpeedGustMPH,Humidity,HourlyPrecipIn,Conditions,Clouds,dailyrainin,SoftwareType,DateUTC
2013-07-23 00:01:00,67.0,65.0,-100.00,WSW,240,0.0,2.0,93,-99.99,,,-99.99,,2013-07-23 04:01:00,
2013-07-23 00:11:00,67.0,65.0,-100.00,WSW,250,1.0,1.0,93,-99.99,,,-99.99,,2013-07-23 04:11:00,
2013-07-23 00:22:00,67.0,65.0,-100.00,SW,215,0.0,2.0,93,-99.99,,,-99.99,,2013-07-23 04:22:00,
2013-07-23 00:32:00,67.0,65.0,-100.00,West,265,0.0,1.0,93,-99.99,,,-99.99,,2013-07-23 04:32:00,
2013-07-23 00:43:00,66.0,65.0,-100.00,SSE,160,1.0,2.0,94,-99.99,,,-99.99,,2013-07-23 04:43:00,
2013-07-23 01:22:00,66.0,65.0,-100.00,SSW,195,1.0,1.0,94,-99.99,,,-99.99,,2013-07-23 05:22:00,
2013-07-23 01:33:00,67.0,65.0,-100.00,SW,215,2.0,4.0,94,-99.99,,,-99.99,,2013-07-23 05:33:00,
2013-07-23 01:44:00,67.0,65.0,-100.00,SW,215,2.0,4.0,94,-99.99,,,-99.99,,2013-07-23 05:44:00,
2013-07-23 02:33:00,66.0,65.0,-100.00,SSW,195,2.0,4.0,95,-99.99,,,-99.99,,2013-07-23 06:33:00,
2013-07-23 02:42:00,67.0,65.0,-100.00,SW,220,2.0,4.0,95,-99.99,,,-99.99,,2013-07-23 06:42:00,
2013-07-23 02:52:00,67.0,65.0,-100.00,SW,215,2.0,4.0,95,-99.99,,,-99.99,,2013-07-23 06:52:00,
2013-07-23 03:01:00,67.0,65.0,-100.00,SSW,210,2.0,6.0,95,-99.99,,,-99.99,,2013-07-23 07:01:00,
2013-07-23 03:22:00,67.0,65.0,-100.00,SW,215,2.0,6.0,95,-99.99,,,-99.99,,2013-07-23 07:22:00,
2013-07-23 03:33:00,66.0,65.0,-100.00,SSW,210,1.0,4.0,95,-99.99,,,-99.99,,2013-07-23 07:33:00,
2013-07-23 03:42:00,66.0,65.0,-100.00,SSW,195,2.0,5.0,95,-99.99,,,-99.99,,2013-07-23 07:42:00,
2013-07-23 04:01:00,67.0,65.0,-100.00,SW,215,2.0,4.0,95,-99.99,,,-99.99,,2013-07-23 08:01:00,
2013-07-23 06:02:00,67.0,66.0,-100.00,SW,215,4.0,9.0,95,-99.99,,,-99.99,,2013-07-23 10:02:00,
2013-07-23 07:43:00,69.0,67.0,-100.00,West,280,3.0,4.0,95,-99.99,,,-99.99,,2013-07-23 11:43:00,
2013-07-23 08:11:00,69.0,68.0,-100.00,WNW,285,2.0,2.0,95,-99.99,,,-99.99,,2013-07-23 12:11:00,
2013-07-23 08:22:00,69.0,68.0,-100.00,South,170,0.0,3.0,95,-99.99,,,-99.99,,2013-07-23 12:22:00,
2013-07-23 08:33:00,70.0,69.0,-100.00,SW,220,1.0,2.0,95,-99.99,,,-99.99,,2013-07-23 12:33:00,
2013-07-23 08:43:00,71.0,69.0,-100.00,WSW,245,1.0,3.0,95,-99.99,,,-99.99,,2013-07-23 12:43:00,
2013-07-23 09:01:00,71.0,70.0,-100.00,SW,215,1.0,4.0,95,-99.99,,,-99.99,,2013-07-23 13:01:00,
2013-07-23 10:12:00,76.0,71.0,-100.00,SW,230,3.0,9.0,84,-99.99,,,-99.99,,2013-07-23 14:12:00,
2013-07-23 10:22:00,76.0,70.0,-100.00,SW,230,4.0,11.0,79,-99.99,,,-99.99,,2013-07-23 14:22:00,
2013-07-23 10:33:00,76.0,68.0,-100.00,West,275,9.0,15.0,74,-99.99,,,-99.99,,2013-07-23 14:33:00,
2013-07-23 10:44:00,78.0,68.0,-100.00,WNW,290,6.0,11.0,71,-99.99,,,-99.99,,2013-07-23 14:44:00,
2013-07-23 11:03:00,78.0,66.0,-100.00,WNW,285,10.0,16.0,67,-99.99,,,-99.99,,2013-07-23 15:03:00,
2013-07-23 12:43:00,80.0,65.0,-100.00,West,280,6.0,18.0,61,-99.99,,,-99.99,,2013-07-23 16:43:00,
2013-07-23 13:11:00,80.0,65.0,-100.00,WNW,285,6.0,15.0,60,-99.99,,,-99.99,,2013-07-23 17:11:00,
2013-07-23 13:22:00,82.0,66.0,-100.00,West,275,7.0,16.0,59,-99.99,,,-99.99,,2013-07-23 17:22:00,
2013-07-23 13:32:00,80.0,65.0,-100.00,NW,305,9.0,15.0,60,-99.99,,,-99.99,,2013-07-23 17:32:00,
2013-07-23 13:42:00,80.0,65.0,-100.00,WNW,300,10.0,14.0,58,-99.99,,,-99.99,,2013-07-23 17:42:00,
2013-07-23 14:48:00,82.0,64.0,-100.00,WNW,300,12.0,17.0,55,-99.99,,,-99.99,,2013-07-23 18:48:00,
2013-07-23 15:03:00,82.0,65.0,-100.00,WNW,285,10.0,17.0,56,-99.99,,,-99.99,,2013-07-23 19:03:00,
2013-07-23 15:46:00,82.0,64.0,-100.00,WNW,290,12.0,19.0,54,-99.99,,,-99.99,,2013-07-23 19:46:00,
2013-07-23 16:13:00,82.0,64.0,-100.00,WNW,295,12.0,21.0,55,-99.99,,,-99.99,,2013-07-23 20:13:00,
2013-07-23 16:23:00,82.0,64.0,-100.00,WNW,290,15.0,19.0,54,-99.99,,,-99.99,,2013-07-23 20:23:00,
2013-07-23 16:45:00,81.0,65.0,-100.00,NW,305,13.0,18.0,59,-99.99,,,-99.99,,2013-07-23 20:45:00,
2013-07-23 17:04:00,81.0,65.0,-100.00,NW,305,15.0,21.0,58,-99.99,,,-99.99,,2013-07-23 21:04:00,
2013-07-23 18:05:00,77.0,63.0,-100.00,NW,305,16.0,24.0,62,-99.99,,,-99.99,,2013-07-23 22:05:00,
2013-07-23 18:12:00,76.0,63.0,-100.00,WNW,295,13.0,26.0,62,-99.99,,,-99.99,,2013-07-23 22:12:00,
2013-07-23 18:24:00,76.0,62.0,-100.00,NW,305,16.0,24.0,61,-99.99,,,-99.99,,2013-07-23 22:24:00,
2013-07-23 18:34:00,76.0,62.0,-100.00,WNW,300,14.0,21.0,60,-99.99,,,-99.99,,2013-07-23 22:34:00,
2013-07-23 18:46:00,76.0,61.0,-100.00,NW,315,11.0,21.0,60,-99.99,,,-99.99,,2013-07-23 22:46:00,
2013-07-23 19:06:00,76.0,61.0,-100.00,NW,305,8.0,21.0,59,-99.99,,,-99.99,,2013-07-23 23:06:00,
2013-07-23 19:45:00,74.0,58.0,-100.00,WNW,300,10.0,17.0,56,-99.99,,,-99.99,,2013-07-23 23:45:00,
2013-07-23 19:57:00,74.0,57.0,-100.00,NW,310,10.0,16.0,55,-99.99,,,-99.99,,2013-07-23 23:57:00,
2013-07-23 20:09:00,73.0,56.0,-100.00,NW,305,7.0,16.0,55,-99.99,,,-99.99,,2013-07-24 00:09:00,
2013-07-23 20:14:00,73.0,56.0,-100.00,WNW,295,9.0,17.0,55,-99.99,,,-99.99,,2013-07-24 00:14:00,
2013-07-23 20:34:00,71.0,55.0,-100.00,NW,305,9.0,14.0,55,-99.99,,,-99.99,,2013-07-24 00:34:00,
2013-07-23 20:48:00,71.0,55.0,-100.00,NW,305,7.0,14.0,57,-99.99,,,-99.99,,2013-07-24 00:48:00,
2013-07-23 20:55:00,70.0,55.0,-100.00,NW,310,6.0,14.0,58,-99.99,,,-99.99,,2013-07-24 00:55:00,
2013-07-23 21:04:00,69.0,55.0,-100.00,NW,305,7.0,12.0,60,-99.99,,,-99.99,,2013-07-24 01:04:00,
2013-07-23 22:05:00,65.0,55.0,-100.00,NW,315,6.0,10.0,70,-99.99,,,-99.99,,2013-07-24 02:05:00,
2013-07-23 22:27:00,64.0,55.0,-100.00,NW,305,6.0,12.0,71,-99.99,,,-99.99,,2013-07-24 02:27:00,
2013-07-23 22:38:00,64.0,55.0,-100.00,NNW,330,2.0,10.0,72,-99.99,,,-99.99,,2013-07-24 02:38:00,
2013-07-23 22:47:00,63.0,56.0,-100.00,NNW,330,2.0,6.0,75,-99.99,,,-99.99,,2013-07-24 02:47:00,
2013-07-23 23:13:00,63.0,55.0,-100.00,NNW,335,2.0,9.0,75,-99.99,,,-99.99,,2013-07-24 03:13:00,
2013-07-23 23:24:00,63.0,54.0,-100.00,North,0,5.0,12.0,71,-99.99,,,-99.99,,2013-07-24 03:24:00,
2013-07-23 23:38:00,63.0,54.0,-100.00,North,10,4.0,12.0,71,-99.99,,,-99.99,,2013-07-24 03:38:00,
2013-07-23 23:45:00,62.0,53.0,-100.00,North,355,3.0,9.0,72,-99.99,,,-99.99,,2013-07-24 03:45:00,